createdAt,value
2018-04-26T00:00:18.083Z,0
2018-04-26T00:01:19.728Z,0
2018-04-26T00:02:21.379Z,0
2018-04-26T00:03:23.029Z,0
2018-04-26T00:04:24.684Z,0
2018-04-26T00:05:26.329Z,0
2018-04-26T00:06:27.969Z,0
2018-04-26T00:07:29.618Z,0
2018-04-26T00:08:31.265Z,0
2018-04-26T00:09:32.911Z,0
2018-04-26T00:10:34.548Z,0
2018-04-26T00:11:36.201Z,0
2018-04-26T00:12:37.845Z,0
2018-04-26T00:13:39.495Z,0
2018-04-26T00:14:41.143Z,0
2018-04-26T00:15:42.787Z,0
2018-04-26T00:16:44.444Z,0
2018-04-26T00:17:46.120Z,0
2018-04-26T00:18:47.760Z,0
2018-04-26T00:19:49.403Z,0
2018-04-26T00:20:51.054Z,0
2018-04-26T00:21:52.696Z,0
2018-04-26T00:22:54.342Z,0
2018-04-26T00:23:55.995Z,0
2018-04-26T00:24:57.630Z,0
2018-04-26T00:25:59.281Z,0
2018-04-26T00:27:00.934Z,0
2018-04-26T00:28:02.650Z,0
2018-04-26T00:29:04.306Z,0
2018-04-26T00:30:05.946Z,0
2018-04-26T00:31:07.596Z,0
2018-04-26T00:32:09.241Z,0
2018-04-26T00:33:10.887Z,0
2018-04-26T00:34:12.530Z,0
2018-04-26T00:35:14.179Z,0
2018-04-26T00:36:15.822Z,0
2018-04-26T00:37:17.469Z,0
2018-04-26T00:38:19.148Z,0
2018-04-26T00:39:20.797Z,0
2018-04-26T00:40:22.447Z,0
2018-04-26T00:41:24.092Z,0
2018-04-26T00:42:25.744Z,0
2018-04-26T00:43:29.745Z,0
2018-04-26T00:44:31.387Z,0
2018-04-26T00:45:33.149Z,0
2018-04-26T00:46:34.794Z,0
2018-04-26T00:47:36.441Z,0
2018-04-26T00:48:38.121Z,0
2018-04-26T00:49:39.763Z,0
2018-04-26T00:50:41.409Z,0
2018-04-26T00:51:43.061Z,0
2018-04-26T00:52:44.703Z,0
2018-04-26T00:53:46.358Z,0
2018-04-26T00:54:48.009Z,0
2018-04-26T00:55:49.653Z,0
2018-04-26T00:56:51.311Z,0
2018-04-26T00:57:52.958Z,0
2018-04-26T00:58:54.597Z,0
2018-04-26T00:59:56.246Z,0
2018-04-26T01:00:58.021Z,0
2018-04-26T01:01:59.660Z,0
2018-04-26T01:03:01.308Z,0
2018-04-26T01:04:02.949Z,0
2018-04-26T01:05:04.594Z,0
2018-04-26T01:06:06.240Z,0
2018-04-26T01:07:07.882Z,0
2018-04-26T01:08:09.530Z,0
2018-04-26T01:09:11.184Z,0
2018-04-26T01:10:12.839Z,0
2018-04-26T01:11:14.484Z,0
2018-04-26T01:12:16.123Z,0
2018-04-26T01:13:17.783Z,0
2018-04-26T01:14:19.433Z,0
2018-04-26T01:15:21.075Z,0
2018-04-26T01:16:22.721Z,0
2018-04-26T01:17:24.378Z,0
2018-04-26T01:18:26.029Z,0
2018-04-26T01:19:27.663Z,0
2018-04-26T01:20:29.312Z,0
2018-04-26T01:21:30.960Z,0
2018-04-26T01:22:32.601Z,0
2018-04-26T01:23:34.240Z,0
2018-04-26T01:24:35.892Z,0
2018-04-26T01:25:37.549Z,0
2018-04-26T01:26:39.186Z,0
2018-04-26T01:27:40.829Z,0
2018-04-26T01:28:42.468Z,0
2018-04-26T01:29:44.123Z,0
2018-04-26T01:30:45.792Z,0
2018-04-26T01:31:47.447Z,0
2018-04-26T01:32:49.086Z,0
2018-04-26T01:33:50.730Z,0
2018-04-26T01:34:52.377Z,0
2018-04-26T01:35:54.020Z,0
2018-04-26T01:36:55.673Z,0
2018-04-26T01:37:57.329Z,0
2018-04-26T01:38:58.977Z,0
2018-04-26T01:40:00.621Z,0
2018-04-26T01:41:02.263Z,0
2018-04-26T01:42:03.912Z,0
2018-04-26T01:43:05.614Z,0
2018-04-26T01:44:07.258Z,0
2018-04-26T01:45:08.928Z,0
2018-04-26T01:46:10.571Z,0
2018-04-26T01:47:12.215Z,0
2018-04-26T01:48:13.876Z,0
2018-04-26T01:49:15.518Z,0
2018-04-26T01:50:17.162Z,0
2018-04-26T01:51:18.821Z,0
2018-04-26T01:52:20.467Z,0
2018-04-26T01:53:22.115Z,0
2018-04-26T01:54:23.767Z,0
2018-04-26T01:55:25.412Z,0
2018-04-26T02:02:02.290Z,0
2018-04-26T02:03:03.935Z,0
2018-04-26T02:04:55.861Z,0
2018-04-26T02:05:57.504Z,0
2018-04-26T02:07:49.414Z,0
2018-04-26T02:08:51.071Z,0
2018-04-26T02:10:42.999Z,0
2018-04-26T02:11:44.634Z,0
2018-04-26T02:13:36.573Z,0
2018-04-26T02:14:38.213Z,0
2018-04-26T02:16:30.149Z,0
2018-04-26T02:17:31.790Z,0
2018-04-26T02:18:33.446Z,0
2018-04-26T02:19:35.106Z,0
2018-04-26T02:20:36.746Z,0
2018-04-26T02:21:38.393Z,0
2018-04-26T02:22:40.043Z,0
2018-04-26T02:23:41.688Z,0
2018-04-26T02:24:43.344Z,0
2018-04-26T02:25:44.996Z,0
2018-04-26T02:26:46.645Z,0
2018-04-26T02:27:48.281Z,0
2018-04-26T02:28:49.929Z,0
2018-04-26T02:29:51.585Z,0
2018-04-26T02:30:53.238Z,0
2018-04-26T02:31:54.885Z,0
2018-04-26T02:32:56.545Z,0
2018-04-26T02:33:58.190Z,0
2018-04-26T02:34:59.838Z,0
2018-04-26T02:36:01.529Z,0
2018-04-26T02:37:03.179Z,0
2018-04-26T02:38:04.824Z,0
2018-04-26T02:39:06.483Z,0
2018-04-26T02:40:08.121Z,0
2018-04-26T02:41:09.778Z,0
2018-04-26T02:42:11.409Z,0
2018-04-26T02:43:13.105Z,0
2018-04-26T02:44:14.755Z,0
2018-04-26T02:45:16.406Z,0
2018-04-26T02:46:18.057Z,0
2018-04-26T02:47:19.701Z,0
2018-04-26T02:48:21.351Z,0
2018-04-26T02:49:22.995Z,0
2018-04-26T02:50:24.643Z,0
2018-04-26T02:51:26.291Z,0
2018-04-26T02:52:27.948Z,0
2018-04-26T02:53:29.591Z,0
2018-04-26T02:54:31.243Z,0
2018-04-26T02:55:32.892Z,0
2018-04-26T02:56:34.537Z,0
2018-04-26T02:57:36.187Z,0
2018-04-26T02:58:37.885Z,0
2018-04-26T02:59:39.534Z,0
2018-04-26T03:00:41.181Z,0
2018-04-26T03:01:42.822Z,0
2018-04-26T03:02:44.470Z,0
2018-04-26T03:03:46.142Z,0
2018-04-26T03:04:47.810Z,0
2018-04-26T03:05:49.456Z,0
2018-04-26T03:06:51.116Z,0
2018-04-26T03:07:52.779Z,0
2018-04-26T03:08:54.429Z,0
2018-04-26T03:09:56.078Z,0
2018-04-26T03:10:57.731Z,0
2018-04-26T03:11:59.404Z,0
2018-04-26T03:13:01.056Z,0
2018-04-26T03:14:02.723Z,0
2018-04-26T03:15:04.374Z,0
2018-04-26T03:16:06.028Z,0
2018-04-26T03:17:07.680Z,0
2018-04-26T03:18:09.328Z,0
2018-04-26T03:19:10.982Z,0
2018-04-26T03:20:12.633Z,0
2018-04-26T03:21:14.284Z,0
2018-04-26T03:22:15.934Z,0
2018-04-26T03:23:17.583Z,0
2018-04-26T03:24:19.230Z,0
2018-04-26T03:25:20.883Z,0
2018-04-26T03:26:22.531Z,0
2018-04-26T03:27:24.187Z,0
2018-04-26T03:28:25.829Z,0
2018-04-26T03:29:27.482Z,0
2018-04-26T03:30:29.133Z,0
2018-04-26T03:31:30.788Z,0
2018-04-26T03:32:32.433Z,0
2018-04-26T03:33:34.081Z,0
2018-04-26T03:34:35.735Z,0
2018-04-26T03:35:37.387Z,0
2018-04-26T03:36:39.025Z,0
2018-04-26T03:37:40.678Z,0
2018-04-26T03:38:42.319Z,0
2018-04-26T03:39:43.970Z,0
2018-04-26T03:40:45.669Z,0
2018-04-26T03:41:47.325Z,0
2018-04-26T03:42:49.004Z,0
2018-04-26T03:43:50.649Z,0
2018-04-26T03:44:52.251Z,0
2018-04-26T03:45:53.912Z,0
2018-04-26T03:46:55.575Z,0
2018-04-26T03:47:57.232Z,0
2018-04-26T03:48:58.877Z,0
2018-04-26T03:50:00.520Z,0
2018-04-26T03:51:02.172Z,0
2018-04-26T03:52:03.823Z,0
2018-04-26T03:53:05.487Z,0
2018-04-26T03:54:07.157Z,0
2018-04-26T03:55:08.804Z,0
2018-04-26T03:56:10.461Z,0
2018-04-26T03:57:12.124Z,0
2018-04-26T03:58:13.755Z,0
2018-04-26T03:59:15.404Z,0
2018-04-26T04:00:17.065Z,0
2018-04-26T04:01:18.721Z,0
2018-04-26T04:02:20.372Z,0
2018-04-26T04:03:22.027Z,0
2018-04-26T04:04:23.673Z,0
2018-04-26T04:05:25.328Z,0
2018-04-26T04:06:27.050Z,0
2018-04-26T04:07:28.586Z,0
2018-04-26T04:08:30.234Z,0
2018-04-26T04:09:31.889Z,0
2018-04-26T04:10:33.544Z,0
2018-04-26T04:11:35.184Z,0
2018-04-26T04:12:36.836Z,0
2018-04-26T04:13:38.489Z,0
2018-04-26T04:14:40.132Z,0
2018-04-26T04:15:41.789Z,5
2018-04-26T04:16:43.449Z,5
2018-04-26T04:17:45.097Z,5
2018-04-26T04:18:46.748Z,5
2018-04-26T04:19:48.400Z,5
2018-04-26T04:20:50.042Z,5
2018-04-26T04:21:51.699Z,10
2018-04-26T04:22:53.347Z,10
2018-04-26T04:23:55.006Z,10
2018-04-26T04:24:56.672Z,10
2018-04-26T04:25:58.318Z,10
2018-04-26T04:26:59.972Z,10
2018-04-26T04:28:01.657Z,10
2018-04-26T04:29:03.284Z,10
2018-04-26T04:30:04.941Z,10
2018-04-26T04:31:06.591Z,10
2018-04-26T04:32:08.201Z,15
2018-04-26T04:33:09.854Z,20
2018-04-26T04:34:11.540Z,30
2018-04-26T04:35:13.220Z,45
2018-04-26T04:36:14.839Z,40
2018-04-26T04:37:16.498Z,35
2018-04-26T04:38:18.158Z,35
2018-04-26T04:39:19.911Z,30
2018-04-26T04:40:21.562Z,30
2018-04-26T04:41:23.207Z,25
2018-04-26T04:42:24.866Z,25
2018-04-26T04:43:26.518Z,30
2018-04-26T04:44:28.350Z,60
2018-04-26T04:45:30.005Z,90
2018-04-26T04:46:31.654Z,55
2018-04-26T04:47:33.317Z,35
2018-04-26T04:48:34.971Z,30
2018-04-26T04:49:36.619Z,30
2018-04-26T04:50:38.268Z,35
2018-04-26T04:51:39.935Z,45
2018-04-26T04:52:41.579Z,40
2018-04-26T04:53:43.337Z,35
2018-04-26T04:54:44.994Z,35
2018-04-26T04:55:46.644Z,40
2018-04-26T04:56:48.303Z,45
2018-04-26T04:57:49.967Z,30
2018-04-26T04:58:51.618Z,45
2018-04-26T04:59:53.289Z,50
2018-04-26T05:00:54.932Z,40
2018-04-26T05:01:56.631Z,35
2018-04-26T05:02:58.248Z,35
2018-04-26T05:03:59.891Z,40
2018-04-26T05:05:01.559Z,55
2018-04-26T05:06:03.214Z,55
2018-04-26T05:07:04.868Z,50
2018-04-26T05:08:06.521Z,45
2018-04-26T05:09:08.182Z,55
2018-04-26T05:10:09.834Z,60
2018-04-26T05:11:11.486Z,80
2018-04-26T05:12:13.137Z,70
2018-04-26T05:13:14.786Z,65
2018-04-26T05:14:16.451Z,75
2018-04-26T05:15:18.103Z,65
2018-04-26T05:16:19.759Z,45
2018-04-26T05:17:21.410Z,50
2018-04-26T05:18:23.058Z,50
2018-04-26T05:19:24.719Z,45
2018-04-26T05:20:26.413Z,40
2018-04-26T05:21:28.066Z,50
2018-04-26T05:22:29.714Z,60
2018-04-26T05:23:31.371Z,75
2018-04-26T05:24:33.062Z,90
2018-04-26T05:25:34.717Z,100
2018-04-26T05:26:36.368Z,70
2018-04-26T05:27:38.029Z,75
2018-04-26T05:28:39.688Z,70
2018-04-26T05:29:41.344Z,50
2018-04-26T05:30:42.999Z,50
2018-04-26T05:31:44.658Z,35
2018-04-26T05:32:46.341Z,25
2018-04-26T05:33:48.023Z,30
2018-04-26T05:34:49.650Z,40
2018-04-26T05:35:51.305Z,55
2018-04-26T05:36:52.959Z,50
2018-04-26T05:37:54.616Z,55
2018-04-26T05:38:56.263Z,45
2018-04-26T05:39:57.913Z,30
2018-04-26T05:40:59.570Z,25
2018-04-26T05:42:01.223Z,30
2018-04-26T05:43:02.888Z,40
2018-04-26T05:44:04.523Z,45
2018-04-26T05:45:06.189Z,55
2018-04-26T05:46:07.867Z,70
2018-04-26T05:47:09.538Z,70
2018-04-26T05:48:11.177Z,65
2018-04-26T05:49:12.836Z,70
2018-04-26T05:50:14.491Z,110
2018-04-26T05:51:16.150Z,145
2018-04-26T05:52:17.810Z,160
2018-04-26T05:53:19.495Z,180
2018-04-26T05:54:21.237Z,165
2018-04-26T05:55:22.904Z,140
2018-04-26T06:01:38.450Z,260
2018-04-26T06:02:40.120Z,255
2018-04-26T06:04:32.764Z,280
2018-04-26T06:05:34.412Z,365
2018-04-26T06:06:36.088Z,425
2018-04-26T06:07:37.816Z,305
2018-04-26T06:08:39.472Z,170
2018-04-26T06:09:41.129Z,120
2018-04-26T06:10:42.790Z,150
2018-04-26T06:11:44.804Z,170
2018-04-26T06:12:46.456Z,180
2018-04-26T06:13:48.110Z,220
2018-04-26T06:14:49.766Z,205
2018-04-26T06:15:51.482Z,230
2018-04-26T06:16:53.182Z,225
2018-04-26T06:17:54.793Z,205
2018-04-26T06:18:56.454Z,180
2018-04-26T06:19:58.103Z,195
2018-04-26T06:20:59.788Z,185
2018-04-26T06:22:01.444Z,200
2018-04-26T06:23:03.147Z,170
2018-04-26T06:24:04.802Z,160
2018-04-26T06:25:06.565Z,225
2018-04-26T06:26:08.127Z,235
2018-04-26T06:27:09.782Z,180
2018-04-26T06:28:11.436Z,230
2018-04-26T06:29:13.236Z,280
2018-04-26T06:30:14.940Z,325
2018-04-26T06:31:16.595Z,200
2018-04-26T06:32:18.334Z,195
2018-04-26T06:33:19.993Z,230
2018-04-26T06:34:21.654Z,210
2018-04-26T06:35:23.309Z,175
2018-04-26T06:36:24.973Z,150
2018-04-26T06:37:26.687Z,170
2018-04-26T06:38:28.356Z,200
2018-04-26T06:39:30.019Z,320
2018-04-26T06:40:31.682Z,350
2018-04-26T06:41:33.344Z,430
2018-04-26T06:42:35.011Z,465
2018-04-26T06:43:36.669Z,420
2018-04-26T06:44:38.344Z,315
2018-04-26T06:45:39.998Z,320
2018-04-26T06:46:41.660Z,365
2018-04-26T06:47:43.403Z,480
2018-04-26T06:48:44.988Z,710
2018-04-26T06:49:46.644Z,780
2018-04-26T06:50:48.298Z,645
2018-04-26T06:51:49.956Z,540
2018-04-26T06:52:51.616Z,660
2018-04-26T06:53:53.275Z,580
2018-04-26T06:54:54.932Z,560
2018-04-26T06:55:56.596Z,580
2018-04-26T06:56:58.249Z,520
2018-04-26T06:57:59.918Z,505
2018-04-26T06:59:01.579Z,495
2018-04-26T07:00:03.242Z,535
2018-04-26T07:01:04.903Z,805
2018-04-26T07:02:06.566Z,850
2018-04-26T07:03:08.218Z,395
2018-04-26T07:04:09.873Z,320
2018-04-26T07:05:11.525Z,465
2018-04-26T07:06:13.184Z,710
2018-04-26T07:07:14.839Z,595
2018-04-26T07:08:16.496Z,750
2018-04-26T07:09:18.165Z,455
2018-04-26T07:10:19.830Z,345
2018-04-26T07:11:21.485Z,490
2018-04-26T07:12:23.157Z,580
2018-04-26T07:13:24.819Z,560
2018-04-26T07:14:26.490Z,585
2018-04-26T07:15:28.152Z,630
2018-04-26T07:16:29.809Z,895
2018-04-26T07:17:31.488Z,1070
2018-04-26T07:18:33.144Z,650
2018-04-26T07:19:34.801Z,640
2018-04-26T07:20:36.470Z,795
2018-04-26T07:21:38.131Z,880
2018-04-26T07:22:39.790Z,910
2018-04-26T07:23:41.458Z,950
2018-04-26T07:24:43.122Z,610
2018-04-26T07:25:44.786Z,430
2018-04-26T07:26:46.453Z,310
2018-04-26T07:27:48.112Z,280
2018-04-26T07:28:49.779Z,285
2018-04-26T07:29:51.451Z,260
2018-04-26T07:30:53.110Z,275
2018-04-26T07:31:54.765Z,255
2018-04-26T07:32:56.430Z,285
2018-04-26T07:33:58.091Z,345
2018-04-26T07:34:59.748Z,385
2018-04-26T07:36:01.367Z,370
2018-04-26T07:37:03.026Z,400
2018-04-26T07:38:04.693Z,385
2018-04-26T07:39:06.363Z,405
2018-04-26T07:40:08.026Z,520
2018-04-26T07:41:09.678Z,700
2018-04-26T07:42:11.331Z,780
2018-04-26T07:43:12.996Z,755
2018-04-26T07:44:14.651Z,720
2018-04-26T07:45:16.313Z,815
2018-04-26T07:46:17.968Z,885
2018-04-26T07:47:19.633Z,805
2018-04-26T07:48:21.293Z,590
2018-04-26T07:49:22.983Z,510
2018-04-26T07:50:24.642Z,470
2018-04-26T07:51:26.315Z,585
2018-04-26T07:52:27.986Z,770
2018-04-26T07:53:29.723Z,585
2018-04-26T07:54:31.385Z,850
2018-04-26T07:55:33.055Z,1160
2018-04-26T07:56:34.717Z,850
2018-04-26T07:57:36.379Z,705
2018-04-26T07:58:38.064Z,770
2018-04-26T07:59:39.735Z,765
2018-04-26T08:00:41.397Z,755
2018-04-26T08:01:43.126Z,610
2018-04-26T08:02:44.731Z,595
2018-04-26T08:03:46.422Z,470
2018-04-26T08:04:48.087Z,340
2018-04-26T08:05:49.772Z,265
2018-04-26T08:06:51.433Z,235
2018-04-26T08:07:53.096Z,200
2018-04-26T08:08:54.749Z,185
2018-04-26T08:09:56.421Z,195
2018-04-26T08:10:58.077Z,175
2018-04-26T08:11:59.743Z,155
2018-04-26T08:13:01.421Z,140
2018-04-26T08:14:03.079Z,130
2018-04-26T08:15:04.744Z,150
2018-04-26T08:16:06.413Z,180
2018-04-26T08:17:08.074Z,230
2018-04-26T08:18:09.736Z,235
2018-04-26T08:19:11.386Z,275
2018-04-26T08:20:13.061Z,365
2018-04-26T08:21:14.716Z,460
2018-04-26T08:22:16.373Z,715
2018-04-26T08:23:18.035Z,1050
2018-04-26T08:24:19.696Z,1875
2018-04-26T08:25:21.394Z,1100
2018-04-26T08:26:23.067Z,560
2018-04-26T08:27:24.725Z,425
2018-04-26T08:28:26.381Z,375
2018-04-26T08:29:28.042Z,380
2018-04-26T08:30:29.710Z,410
2018-04-26T08:31:31.365Z,415
2018-04-26T08:32:33.037Z,390
2018-04-26T08:33:34.689Z,360
2018-04-26T08:34:36.349Z,365
2018-04-26T08:35:38.012Z,355
2018-04-26T08:36:39.672Z,340
2018-04-26T08:37:41.329Z,345
2018-04-26T08:38:42.985Z,340
2018-04-26T08:39:44.660Z,335
2018-04-26T08:40:46.358Z,310
2018-04-26T08:41:48.024Z,285
2018-04-26T08:42:49.682Z,275
2018-04-26T08:43:51.340Z,285
2018-04-26T08:44:53.000Z,280
2018-04-26T08:45:54.664Z,285
2018-04-26T08:46:56.326Z,340
2018-04-26T08:47:57.985Z,460
2018-04-26T08:48:59.638Z,500
2018-04-26T08:50:01.337Z,490
2018-04-26T08:51:03.099Z,465
2018-04-26T08:52:04.746Z,450
2018-04-26T08:53:06.410Z,595
2018-04-26T08:54:08.091Z,695
2018-04-26T08:55:09.751Z,705
2018-04-26T08:56:11.423Z,565
2018-04-26T08:57:13.083Z,460
2018-04-26T08:58:14.748Z,445
2018-04-26T08:59:16.458Z,455
2018-04-26T09:00:18.053Z,550
2018-04-26T09:01:20.042Z,765
2018-04-26T09:02:21.686Z,905
2018-04-26T09:03:23.341Z,920
2018-04-26T09:04:24.999Z,945
2018-04-26T09:05:26.660Z,1035
2018-04-26T09:06:28.327Z,1060
2018-04-26T09:07:29.976Z,1275
2018-04-26T09:08:31.759Z,1760
2018-04-26T09:09:33.514Z,1790
2018-04-26T09:10:35.181Z,1675
2018-04-26T09:11:36.971Z,1895
2018-04-26T09:12:39.097Z,1825
2018-04-26T09:13:40.762Z,1710
2018-04-26T09:14:42.436Z,2030
2018-04-26T09:15:44.220Z,1165
2018-04-26T09:16:45.888Z,740
2018-04-26T09:17:47.563Z,550
2018-04-26T09:18:49.228Z,450
2018-04-26T09:19:50.949Z,540
2018-04-26T09:20:52.617Z,740
2018-04-26T09:21:54.330Z,810
2018-04-26T09:22:56.094Z,715
2018-04-26T09:23:57.768Z,535
2018-04-26T09:24:59.431Z,440
2018-04-26T09:26:01.100Z,455
2018-04-26T09:27:02.782Z,520
2018-04-26T09:28:04.440Z,585
2018-04-26T09:29:06.102Z,495
2018-04-26T09:30:07.848Z,390
2018-04-26T09:31:09.445Z,350
2018-04-26T09:32:11.110Z,365
2018-04-26T09:33:12.940Z,555
2018-04-26T09:34:14.605Z,830
2018-04-26T09:35:16.257Z,975
2018-04-26T09:36:17.925Z,1175
2018-04-26T09:37:19.579Z,1765
2018-04-26T09:38:21.261Z,3245
2018-04-26T09:39:22.989Z,2585
2018-04-26T09:40:24.653Z,3095
2018-04-26T09:41:26.316Z,2935
2018-04-26T09:42:27.982Z,2835
2018-04-26T09:43:29.667Z,2650
2018-04-26T09:44:31.322Z,2600
2018-04-26T09:45:32.988Z,2485
2018-04-26T09:46:34.659Z,2510
2018-04-26T09:47:36.324Z,1280
2018-04-26T09:48:38.044Z,2060
2018-04-26T09:49:39.655Z,1360
2018-04-26T09:50:41.316Z,1190
2018-04-26T09:51:42.985Z,1100
2018-04-26T09:52:44.652Z,935
2018-04-26T09:53:46.435Z,775
2018-04-26T09:54:48.117Z,600
2018-04-26T10:01:12.083Z,515
2018-04-26T10:02:13.816Z,335
2018-04-26T10:03:15.518Z,285
2018-04-26T10:04:17.179Z,270
2018-04-26T10:05:18.893Z,295
2018-04-26T10:06:20.546Z,325
2018-04-26T10:07:22.204Z,395
2018-04-26T10:08:23.947Z,455
2018-04-26T10:09:25.681Z,500
2018-04-26T10:10:27.332Z,500
2018-04-26T10:11:29.005Z,645
2018-04-26T10:12:30.662Z,875
2018-04-26T10:13:32.319Z,980
2018-04-26T10:14:34.081Z,1030
2018-04-26T10:15:35.818Z,1075
2018-04-26T10:16:37.513Z,1080
2018-04-26T10:17:39.175Z,1020
2018-04-26T10:18:40.927Z,955
2018-04-26T10:19:42.581Z,910
2018-04-26T10:20:44.244Z,910
2018-04-26T10:21:45.930Z,835
2018-04-26T10:22:47.589Z,845
2018-04-26T10:23:49.252Z,785
2018-04-26T10:24:50.919Z,735
2018-04-26T10:25:52.568Z,765
2018-04-26T10:26:54.220Z,875
2018-04-26T10:27:55.887Z,1015
2018-04-26T10:28:57.550Z,1175
2018-04-26T10:29:59.241Z,1070
2018-04-26T10:31:00.913Z,1140
2018-04-26T10:32:02.570Z,1250
2018-04-26T10:33:04.237Z,1420
2018-04-26T10:34:05.899Z,3085
2018-04-26T10:35:07.563Z,2955
2018-04-26T10:36:09.222Z,4265
2018-04-26T10:37:10.914Z,1830
2018-04-26T10:38:12.571Z,2045
2018-04-26T10:39:14.241Z,3210
2018-04-26T10:40:15.903Z,3050
2018-04-26T10:41:17.570Z,2980
2018-04-26T10:42:19.240Z,2865
2018-04-26T10:43:21.085Z,2960
2018-04-26T10:44:22.963Z,2930
2018-04-26T10:45:24.596Z,2880
2018-04-26T10:46:26.400Z,2865
2018-04-26T10:47:28.270Z,2895
2018-04-26T10:48:29.985Z,2830
2018-04-26T10:49:31.653Z,2795
2018-04-26T10:50:33.333Z,2770
2018-04-26T10:51:35.016Z,2770
2018-04-26T10:52:36.676Z,3010
2018-04-26T10:53:38.337Z,2260
2018-04-26T10:54:40.012Z,1370
2018-04-26T10:55:41.725Z,1280
2018-04-26T10:56:43.403Z,2355
2018-04-26T10:57:45.088Z,1110
2018-04-26T10:58:46.774Z,950
2018-04-26T10:59:48.457Z,945
2018-04-26T11:00:50.124Z,940
2018-04-26T11:01:51.801Z,805
2018-04-26T11:02:53.608Z,850
2018-04-26T11:03:55.100Z,1160
2018-04-26T11:04:56.774Z,1305
2018-04-26T11:05:58.438Z,1355
2018-04-26T11:07:00.110Z,1485
2018-04-26T11:08:01.773Z,1390
2018-04-26T11:09:03.446Z,1210
2018-04-26T11:10:05.184Z,1290
2018-04-26T11:11:06.854Z,1405
2018-04-26T11:12:08.531Z,1525
2018-04-26T11:13:10.198Z,4620
2018-04-26T11:14:11.862Z,4240
2018-04-26T11:15:13.530Z,4270
2018-04-26T11:16:15.203Z,4175
2018-04-26T11:17:16.925Z,2585
2018-04-26T11:18:18.492Z,3380
2018-04-26T11:19:20.173Z,3935
2018-04-26T11:20:21.846Z,3685
2018-04-26T11:21:23.532Z,1125
2018-04-26T11:22:25.184Z,3460
2018-04-26T11:23:26.868Z,1905
2018-04-26T11:24:28.616Z,3050
2018-04-26T11:25:30.214Z,715
2018-04-26T11:26:31.892Z,1035
2018-04-26T11:27:33.563Z,655
2018-04-26T11:28:35.232Z,565
2018-04-26T11:29:36.901Z,3225
2018-04-26T11:30:38.647Z,2975
2018-04-26T11:31:40.312Z,1470
2018-04-26T11:32:41.991Z,3595
2018-04-26T11:33:44.229Z,1065
2018-04-26T11:34:45.918Z,940
2018-04-26T11:35:47.592Z,1590
2018-04-26T11:36:49.257Z,1010
2018-04-26T11:37:50.925Z,875
2018-04-26T11:38:52.714Z,965
2018-04-26T11:39:54.383Z,965
2018-04-26T11:40:56.044Z,1225
2018-04-26T11:41:57.709Z,1345
2018-04-26T11:42:59.373Z,3715
2018-04-26T11:44:01.355Z,3600
2018-04-26T11:45:02.951Z,3505
2018-04-26T11:46:04.622Z,3390
2018-04-26T11:47:06.359Z,3370
2018-04-26T11:48:08.067Z,3430
2018-04-26T11:49:09.725Z,3475
2018-04-26T11:50:11.397Z,3435
2018-04-26T11:51:13.075Z,3400
2018-04-26T11:52:14.736Z,3455
2018-04-26T11:53:16.374Z,3520
2018-04-26T11:54:18.053Z,3255
2018-04-26T11:55:19.728Z,1090
2018-04-26T11:56:21.466Z,1000
2018-04-26T11:57:23.025Z,930
2018-04-26T11:58:24.692Z,895
2018-04-26T11:59:26.358Z,855
2018-04-26T12:00:28.024Z,835
2018-04-26T12:01:29.687Z,835
2018-04-26T12:02:31.452Z,870
2018-04-26T12:03:33.100Z,960
2018-04-26T12:04:34.771Z,2515
2018-04-26T12:05:36.434Z,1360
2018-04-26T12:06:38.437Z,1320
2018-04-26T12:07:40.153Z,1265
2018-04-26T12:08:41.772Z,1240
2018-04-26T12:09:43.444Z,1230
2018-04-26T12:10:45.119Z,1280
2018-04-26T12:11:46.870Z,1285
2018-04-26T12:12:48.532Z,1225
2018-04-26T12:13:50.194Z,1345
2018-04-26T12:14:51.875Z,1400
2018-04-26T12:15:53.553Z,1530
2018-04-26T12:16:55.218Z,2590
2018-04-26T12:17:57.798Z,2080
2018-04-26T12:18:59.177Z,1400
2018-04-26T12:20:00.835Z,1215
2018-04-26T12:21:02.530Z,2585
2018-04-26T12:22:04.453Z,1110
2018-04-26T12:23:06.547Z,1005
2018-04-26T12:24:08.376Z,985
2018-04-26T12:25:09.949Z,880
2018-04-26T12:26:11.616Z,905
2018-04-26T12:27:13.277Z,765
2018-04-26T12:28:14.951Z,1165
2018-04-26T12:29:16.635Z,2640
2018-04-26T12:30:18.246Z,2155
2018-04-26T12:31:19.915Z,3365
2018-04-26T12:32:21.583Z,3205
2018-04-26T12:33:23.256Z,3265
2018-04-26T12:34:24.951Z,3315
2018-04-26T12:35:26.619Z,3070
2018-04-26T12:36:28.293Z,2590
2018-04-26T12:37:29.957Z,3520
2018-04-26T12:38:31.628Z,1830
2018-04-26T12:39:33.315Z,875
2018-04-26T12:40:34.982Z,1655
2018-04-26T12:41:36.677Z,2530
2018-04-26T12:42:38.336Z,2365
2018-04-26T12:43:40.000Z,3660
2018-04-26T12:44:41.683Z,1295
2018-04-26T12:45:43.340Z,1835
2018-04-26T12:46:45.013Z,870
2018-04-26T12:47:46.691Z,1085
2018-04-26T12:48:48.359Z,1150
2018-04-26T12:49:50.019Z,725
2018-04-26T12:50:51.696Z,2970
2018-04-26T12:51:53.367Z,880
2018-04-26T12:52:55.064Z,3060
2018-04-26T12:53:56.730Z,2940
2018-04-26T12:54:58.404Z,3260
2018-04-26T12:56:00.069Z,2360
2018-04-26T12:57:01.739Z,1005
2018-04-26T12:58:03.427Z,1075
2018-04-26T12:59:05.074Z,1030
2018-04-26T13:00:06.749Z,2190
2018-04-26T13:01:08.412Z,1010
2018-04-26T13:02:10.079Z,905
2018-04-26T13:03:11.739Z,915
2018-04-26T13:04:13.416Z,1065
2018-04-26T13:05:15.082Z,875
2018-04-26T13:06:16.741Z,845
2018-04-26T13:07:18.410Z,870
2018-04-26T13:08:20.080Z,880
2018-04-26T13:09:21.749Z,955
2018-04-26T13:10:23.423Z,2790
2018-04-26T13:11:25.083Z,1495
2018-04-26T13:12:26.751Z,1200
2018-04-26T13:13:28.416Z,1380
2018-04-26T13:14:30.088Z,3200
2018-04-26T13:15:31.753Z,2040
2018-04-26T13:16:33.422Z,2095
2018-04-26T13:17:35.134Z,2950
2018-04-26T13:18:36.767Z,2995
2018-04-26T13:19:38.443Z,2930
2018-04-26T13:20:40.116Z,2970
2018-04-26T13:21:41.787Z,3005
2018-04-26T13:22:43.504Z,2955
2018-04-26T13:23:45.188Z,2945
2018-04-26T13:24:46.846Z,2735
2018-04-26T13:25:48.543Z,2630
2018-04-26T13:26:50.216Z,2640
2018-04-26T13:27:51.880Z,2640
2018-04-26T13:28:53.693Z,2595
2018-04-26T13:29:55.470Z,2645
2018-04-26T13:30:57.005Z,2715
2018-04-26T13:31:58.681Z,710
2018-04-26T13:33:00.353Z,2930
2018-04-26T13:34:02.020Z,945
2018-04-26T13:35:03.690Z,870
2018-04-26T13:36:05.353Z,740
2018-04-26T13:37:07.020Z,625
2018-04-26T13:38:08.688Z,545
2018-04-26T13:39:10.361Z,510
2018-04-26T13:40:12.035Z,560
2018-04-26T13:41:13.697Z,690
2018-04-26T13:42:15.368Z,1865
2018-04-26T13:43:17.032Z,1375
2018-04-26T13:44:18.698Z,2975
2018-04-26T13:45:20.385Z,2885
2018-04-26T13:46:22.121Z,2685
2018-04-26T13:47:23.720Z,2400
2018-04-26T13:48:27.238Z,2420
2018-04-26T13:49:28.906Z,1125
2018-04-26T13:50:30.573Z,410
2018-04-26T13:51:32.242Z,825
2018-04-26T13:52:33.928Z,2560
2018-04-26T13:53:35.626Z,2690
2018-04-26T13:54:37.294Z,2535
2018-04-26T13:55:38.964Z,1345
2018-04-26T14:02:01.009Z,2445
2018-04-26T14:03:02.677Z,2180
2018-04-26T14:04:54.632Z,800
2018-04-26T14:05:56.399Z,675
2018-04-26T14:07:48.226Z,1240
2018-04-26T14:08:50.287Z,835
2018-04-26T14:09:51.959Z,970
2018-04-26T14:10:53.622Z,835
2018-04-26T14:11:55.310Z,775
2018-04-26T14:12:57.097Z,675
2018-04-26T14:13:58.745Z,640
2018-04-26T14:15:00.410Z,620
2018-04-26T14:16:02.088Z,665
2018-04-26T14:17:03.751Z,635
2018-04-26T14:18:05.409Z,635
2018-04-26T14:19:07.080Z,650
2018-04-26T14:20:08.764Z,665
2018-04-26T14:21:10.418Z,755
2018-04-26T14:22:12.085Z,1555
2018-04-26T14:23:13.903Z,2690
2018-04-26T14:24:15.507Z,2760
2018-04-26T14:25:17.141Z,960
2018-04-26T14:26:18.797Z,920
2018-04-26T14:27:20.466Z,765
2018-04-26T14:28:22.202Z,765
2018-04-26T14:29:23.887Z,1340
2018-04-26T14:30:25.539Z,1880
2018-04-26T14:31:27.202Z,2010
2018-04-26T14:32:28.951Z,1835
2018-04-26T14:33:30.648Z,740
2018-04-26T14:34:32.313Z,2080
2018-04-26T14:35:33.990Z,2050
2018-04-26T14:36:35.653Z,1550
2018-04-26T14:37:37.403Z,1635
2018-04-26T14:38:39.047Z,1625
2018-04-26T14:39:40.700Z,480
2018-04-26T14:40:42.382Z,510
2018-04-26T14:41:44.235Z,595
2018-04-26T14:42:45.947Z,700
2018-04-26T14:43:47.632Z,1520
2018-04-26T14:44:49.297Z,715
2018-04-26T14:45:50.959Z,585
2018-04-26T14:46:52.626Z,515
2018-04-26T14:47:54.300Z,655
2018-04-26T14:48:55.956Z,660
2018-04-26T14:49:57.650Z,1095